Time;durP1;ratioP1;P1;durP2;ratioP2;P2;SDS_P1;SDS_P2;PMS_P1;PMS_P2;Temp;Humidity;BMP_temperature;BMP_pressure;BME280_temperature;BME280_humidity;BME280_pressure;Samples;Min_cycle;Max_cycle;Signal;HPM_P1;HPM_P2
2022/09/19 00:00:34;;;;;;;1.25;0.80;;;11.10;99.90;;;;;;5218891;28;20444;-71
2022/09/19 00:03:07;;;;;;;1.80;1.00;;;11.00;99.90;;;;;;5223556;28;20365;-72
2022/09/19 00:05:40;;;;;;;1.00;0.90;;;11.10;99.90;;;;;;5206978;28;20055;-72
2022/09/19 00:08:12;;;;;;;3.53;1.17;;;11.10;99.90;;;;;;5223529;28;20032;-72
2022/09/19 00:10:50;;;;;;;1.13;1.02;;;11.10;99.90;;;;;;5240681;28;20054;-72
2022/09/19 00:13:21;;;;;;;3.50;1.42;;;11.20;99.90;;;;;;5242724;28;20029;-72
2022/09/19 00:15:53;;;;;;;1.27;1.15;;;11.10;99.90;;;;;;5224922;28;20334;-72
2022/09/19 00:18:30;;;;;;;0.95;0.85;;;11.20;99.90;;;;;;5240449;28;20033;-71
2022/09/19 00:21:02;;;;;;;1.30;1.10;;;11.20;99.90;;;;;;5243177;28;20454;-72
2022/09/19 00:26:31;;;;;;;0.98;0.90;;;11.20;99.90;;;;;;5227807;28;20062;-72
2022/09/19 00:29:06;;;;;;;2.22;1.00;;;11.10;99.90;;;;;;5253081;28;20027;-71
2022/09/19 00:31:38;;;;;;;1.65;1.08;;;11.20;99.90;;;;;;5206628;28;20661;-72
2022/09/19 00:34:12;;;;;;;1.33;0.93;;;11.20;99.90;;;;;;5240974;28;20108;-71
2022/09/19 00:36:45;;;;;;;1.35;1.10;;;11.20;99.90;;;;;;5228370;28;20446;-72
2022/09/19 00:39:21;;;;;;;1.20;0.95;;;11.20;99.90;;;;;;5203845;28;20041;-71
2022/09/19 00:41:55;;;;;;;2.47;1.00;;;11.20;99.90;;;;;;5221047;28;20029;-72
2022/09/19 00:44:29;;;;;;;1.67;1.05;;;11.10;99.90;;;;;;5220467;28;20024;-71
2022/09/19 00:47:10;;;;;;;2.25;0.90;;;11.10;99.90;;;;;;5202708;28;20032;-71
2022/09/19 00:49:47;;;;;;;1.83;1.20;;;11.10;99.90;;;;;;5219985;28;20067;-72
2022/09/19 00:52:32;;;;;;;1.15;1.02;;;11.00;99.90;;;;;;5224721;28;20024;-72
2022/09/19 00:55:06;;;;;;;3.35;1.13;;;11.10;99.90;;;;;;5208132;28;20029;-72
2022/09/19 00:58:10;;;;;;;1.08;0.90;;;11.20;99.90;;;;;;5224940;28;20055;-72
2022/09/19 01:00:43;;;;;;;2.80;0.93;;;11.30;99.90;;;;;;5225882;28;20049;-71
2022/09/19 01:03:18;;;;;;;3.83;1.10;;;11.20;99.90;;;;;;5240528;28;20040;-72
2022/09/19 01:06:14;;;;;;;2.28;1.10;;;11.20;99.90;;;;;;5228937;28;20075;-72
2022/09/19 01:09:12;;;;;;;0.88;0.70;;;11.30;99.90;;;;;;5246255;28;20050;-73
2022/09/19 01:11:47;;;;;;;1.20;0.73;;;11.30;99.90;;;;;;5248305;28;20048;-73
2022/09/19 01:15:19;;;;;;;0.90;0.90;;;11.30;99.90;;;;;;5230963;28;20021;-71
2022/09/19 01:18:13;;;;;;;1.15;1.05;;;11.30;99.90;;;;;;5247609;28;20032;-73
2022/09/19 01:21:37;;;;;;;6.13;1.65;;;11.30;99.90;;;;;;5230305;28;20029;-71
2022/09/19 01:24:42;;;;;;;2.15;1.08;;;11.30;99.90;;;;;;5247028;28;20043;-71
2022/09/19 01:27:44;;;;;;;0.98;0.77;;;11.20;99.90;;;;;;5146297;28;20053;-71
2022/09/19 01:30:16;;;;;;;0.65;0.65;;;11.30;99.90;;;;;;5163372;28;20038;-73
2022/09/19 01:33:04;;;;;;;0.90;0.90;;;11.40;99.90;;;;;;5220613;28;20047;-71
2022/09/19 01:35:39;;;;;;;3.10;0.70;;;11.50;99.90;;;;;;5229548;28;20052;-72
2022/09/19 01:38:22;;;;;;;1.10;1.00;;;11.50;99.90;;;;;;5229799;28;20047;-71
2022/09/19 01:40:55;;;;;;;1.33;1.00;;;11.50;99.90;;;;;;5247155;28;20031;-71
2022/09/19 01:43:27;;;;;;;1.25;1.15;;;11.50;99.90;;;;;;5223913;28;20044;-71
2022/09/19 01:46:11;;;;;;;1.98;0.80;;;11.50;99.90;;;;;;5242324;28;20054;-71
2022/09/19 01:49:07;;;;;;;1.17;0.93;;;11.40;99.90;;;;;;5226737;28;20028;-71
2022/09/19 01:51:47;;;;;;;0.50;0.50;;;11.40;99.90;;;;;;5209507;28;20062;-73
2022/09/19 01:54:46;;;;;;;1.00;0.90;;;11.30;99.90;;;;;;5225273;28;20037;-73
2022/09/19 01:57:49;;;;;;;0.80;0.80;;;11.20;99.90;;;;;;5242895;28;20024;-73
2022/09/19 02:00:28;;;;;;;1.20;0.98;;;11.00;99.90;;;;;;5243587;28;20025;-73
2022/09/19 02:03:48;;;;;;;1.27;1.02;;;10.80;99.90;;;;;;5213299;28;20040;-73
2022/09/19 02:06:46;;;;;;;1.48;0.93;;;10.70;99.90;;;;;;5209998;28;20053;-73
2022/09/19 02:09:44;;;;;;;0.75;0.70;;;10.60;99.90;;;;;;5222799;28;20480;-71
2022/09/19 02:12:19;;;;;;;0.60;0.60;;;10.40;99.90;;;;;;5217323;28;20044;-71
2022/09/19 02:14:54;;;;;;;0.40;0.40;;;10.20;99.90;;;;;;5207524;28;20036;-71
2022/09/19 02:17:37;;;;;;;0.70;0.70;;;10.10;99.90;;;;;;5242393;28;20024;-72
2022/09/19 02:20:15;;;;;;;0.90;0.90;;;9.90;99.90;;;;;;5224796;28;20024;-71
2022/09/19 02:22:52;;;;;;;0.73;0.73;;;9.80;99.90;;;;;;5204127;28;20472;-72
2022/09/19 02:25:32;;;;;;;1.17;0.60;;;9.70;99.90;;;;;;5206055;28;20060;-71
2022/09/19 02:28:25;;;;;;;0.80;0.80;;;9.70;99.90;;;;;;5219087;28;20046;-72
2022/09/19 02:30:59;;;;;;;1.05;0.82;;;9.60;99.90;;;;;;5222484;28;20036;-72
2022/09/19 02:33:32;;;;;;;1.55;0.70;;;9.60;99.90;;;;;;5224036;28;20047;-72
2022/09/19 02:36:16;;;;;;;0.60;0.60;;;9.50;99.90;;;;;;5223429;28;20036;-72
2022/09/19 02:39:08;;;;;;;0.57;0.57;;;9.40;99.90;;;;;;5240853;28;20079;-72
2022/09/19 02:42:01;;;;;;;0.52;0.52;;;9.50;99.90;;;;;;5221268;28;20037;-70
2022/09/19 02:45:06;;;;;;;1.88;0.70;;;9.40;99.90;;;;;;5216415;28;20037;-72
2022/09/19 02:47:57;;;;;;;0.60;0.60;;;9.30;99.90;;;;;;5200339;28;20033;-72
2022/09/19 02:50:57;;;;;;;0.70;0.70;;;9.30;99.90;;;;;;5216775;28;20543;-71
2022/09/19 02:53:47;;;;;;;0.63;0.63;;;9.30;99.90;;;;;;5195739;28;20033;-71
2022/09/19 02:56:28;;;;;;;0.60;0.60;;;9.30;99.90;;;;;;5221209;28;20099;-72
2022/09/19 02:59:18;;;;;;;1.00;0.57;;;9.20;99.90;;;;;;5224994;28;20451;-72
2022/09/19 03:01:58;;;;;;;0.60;0.60;;;9.20;99.90;;;;;;5223549;28;20039;-71
2022/09/19 03:04:40;;;;;;;0.63;0.63;;;9.20;99.90;;;;;;5208695;28;20176;-72
2022/09/19 03:07:19;;;;;;;0.85;0.63;;;9.30;99.90;;;;;;5220160;28;20040;-71
2022/09/19 03:10:01;;;;;;;0.60;0.60;;;9.40;99.90;;;;;;5219082;28;20047;-72
2022/09/19 03:12:38;;;;;;;0.60;0.60;;;9.30;99.90;;;;;;5218981;28;20032;-73
2022/09/19 03:15:12;;;;;;;0.70;0.70;;;9.20;99.90;;;;;;5234513;28;20035;-73
2022/09/19 03:17:51;;;;;;;0.75;0.70;;;9.10;99.90;;;;;;5236973;28;20032;-72
2022/09/19 03:20:24;;;;;;;0.50;0.50;;;9.10;99.90;;;;;;5240085;28;20040;-73
2022/09/19 03:22:58;;;;;;;0.90;0.60;;;9.10;99.90;;;;;;5240079;28;20039;-72
2022/09/19 03:25:30;;;;;;;1.08;1.08;;;9.10;99.90;;;;;;5239893;28;20358;-72
2022/09/19 03:28:03;;;;;;;0.82;0.82;;;9.20;99.90;;;;;;5235647;28;20038;-72
2022/09/19 03:30:34;;;;;;;0.77;0.77;;;9.20;99.90;;;;;;5187428;28;20440;-72
2022/09/19 03:33:05;;;;;;;1.05;0.75;;;9.20;99.90;;;;;;5218741;28;20054;-72
2022/09/19 03:35:40;;;;;;;0.70;0.70;;;9.10;99.90;;;;;;5202925;28;20020;-73
2022/09/19 03:38:11;;;;;;;0.60;0.60;;;9.20;99.90;;;;;;5219641;28;20149;-73
2022/09/19 03:40:46;;;;;;;0.55;0.55;;;9.20;99.90;;;;;;5217547;28;20044;-73
2022/09/19 03:43:19;;;;;;;;;;;9.20;99.90;;;;;;5237418;28;20581;-73
2022/09/19 03:45:53;;;;;;;0.60;0.60;;;9.20;99.90;;;;;;5236847;28;20439;-71
2022/09/19 03:48:26;;;;;;;0.60;0.60;;;9.10;99.90;;;;;;5233960;28;20044;-71
2022/09/19 03:51:01;;;;;;;0.88;0.60;;;9.20;99.90;;;;;;5232525;28;20055;-71
2022/09/19 03:53:33;;;;;;;0.50;0.50;;;9.40;99.90;;;;;;5218871;28;20016;-71
2022/09/19 03:56:13;;;;;;;0.70;0.70;;;9.40;99.90;;;;;;5234620;28;20035;-71
2022/09/19 03:58:45;;;;;;;0.70;0.70;;;9.50;99.90;;;;;;5233844;28;20028;-71
2022/09/19 04:01:21;;;;;;;0.63;0.63;;;9.50;99.90;;;;;;5238471;28;20378;-71
2022/09/19 04:03:58;;;;;;;0.80;0.80;;;9.50;99.90;;;;;;5219199;28;20447;-71
2022/09/19 04:06:34;;;;;;;0.63;0.63;;;9.50;99.90;;;;;;5189332;28;20059;-71
2022/09/19 04:09:08;;;;;;;1.10;0.93;;;9.50;99.90;;;;;;5232276;28;20440;-72
2022/09/19 04:11:43;;;;;;;0.60;0.60;;;9.60;99.90;;;;;;5215613;28;20052;-71
2022/09/19 04:14:17;;;;;;;0.70;0.70;;;9.60;99.90;;;;;;5218597;28;20513;-71
2022/09/19 04:16:48;;;;;;;0.65;0.65;;;9.70;99.90;;;;;;5231103;28;20232;-70
2022/09/19 04:19:26;;;;;;;2.10;0.70;;;9.70;99.90;;;;;;5195652;28;20037;-71
2022/09/19 04:21:59;;;;;;;0.57;0.57;;;9.70;99.90;;;;;;5193479;28;20055;-73
2022/09/19 04:24:32;;;;;;;0.60;0.60;;;9.70;99.90;;;;;;5204711;28;20041;-70
2022/09/19 04:27:06;;;;;;;0.80;0.80;;;9.70;99.90;;;;;;5203115;28;20045;-73
2022/09/19 04:29:40;;;;;;;1.95;0.77;;;9.70;99.90;;;;;;5202856;28;20041;-72
2022/09/19 04:32:15;;;;;;;0.75;0.70;;;9.70;99.90;;;;;;5228538;28;20037;-71
2022/09/19 04:34:47;;;;;;;0.77;0.77;;;9.70;99.90;;;;;;5198479;28;20040;-70
2022/09/19 04:37:19;;;;;;;1.00;0.95;;;9.70;99.90;;;;;;5216989;28;20037;-72
2022/09/19 04:39:50;;;;;;;0.70;0.70;;;9.70;99.90;;;;;;5217688;28;20033;-71
2022/09/19 04:42:22;;;;;;;0.52;0.50;;;9.70;99.90;;;;;;5220630;28;20031;-72
2022/09/19 04:44:58;;;;;;;0.88;0.82;;;9.70;99.90;;;;;;5221876;28;20056;-71
2022/09/19 04:47:32;;;;;;;0.60;0.60;;;9.70;99.90;;;;;;5222918;28;20229;-70
2022/09/19 04:50:08;;;;;;;0.63;0.63;;;9.60;99.90;;;;;;5222052;28;20048;-71
2022/09/19 04:52:39;;;;;;;0.90;0.50;;;9.60;99.90;;;;;;5219641;28;20386;-72
2022/09/19 04:55:11;;;;;;;0.52;0.50;;;9.60;99.90;;;;;;5219854;28;20038;-73
2022/09/19 04:57:42;;;;;;;0.60;0.60;;;9.50;99.90;;;;;;5228024;28;20029;-73
2022/09/19 05:00:14;;;;;;;2.33;0.73;;;9.60;99.90;;;;;;5214608;28;20045;-72
2022/09/19 05:02:47;;;;;;;0.57;0.57;;;9.50;99.90;;;;;;5209529;28;20600;-72
2022/09/19 05:05:18;;;;;;;0.75;0.75;;;9.50;99.90;;;;;;5217769;28;20494;-73
2022/09/19 05:07:52;;;;;;;0.80;0.50;;;9.60;99.90;;;;;;5216804;28;20053;-73
2022/09/19 05:10:24;;;;;;;;;;;9.60;99.90;;;;;;5210709;28;20037;-73
2022/09/19 05:12:59;;;;;;;0.80;0.80;;;9.60;99.90;;;;;;5210951;28;19921;-72
2022/09/19 05:15:31;;;;;;;0.95;0.90;;;9.60;99.90;;;;;;5214733;28;20242;-73
2022/09/19 05:18:04;;;;;;;0.80;0.80;;;9.50;99.90;;;;;;5197122;28;20047;-72
2022/09/19 05:20:39;;;;;;;1.17;0.75;;;9.50;99.90;;;;;;5218192;28;20037;-72
2022/09/19 05:23:14;;;;;;;0.52;0.52;;;9.50;99.90;;;;;;5220079;28;20386;-73
2022/09/19 05:25:46;;;;;;;0.98;0.70;;;9.50;99.90;;;;;;5222066;28;20586;-73
2022/09/19 05:28:27;;;;;;;0.52;0.52;;;9.50;99.90;;;;;;5221738;28;20060;-72
2022/09/19 05:31:09;;;;;;;1.55;0.75;;;9.60;99.90;;;;;;5221887;28;20035;-73
2022/09/19 05:33:41;;;;;;;0.82;0.80;;;9.70;99.90;;;;;;5222881;28;20063;-73
2022/09/19 05:36:15;;;;;;;0.68;0.68;;;9.80;99.90;;;;;;5221665;28;20345;-73
2022/09/19 05:38:49;;;;;;;0.60;0.60;;;9.80;99.90;;;;;;5215062;28;20470;-72
2022/09/19 05:41:23;;;;;;;1.50;0.70;;;9.70;99.90;;;;;;5218466;28;20037;-72
2022/09/19 05:44:01;;;;;;;1.17;1.17;;;9.60;99.90;;;;;;5202307;28;20027;-73
2022/09/19 05:46:35;;;;;;;0.90;0.90;;;9.70;99.90;;;;;;5218643;28;20036;-72
2022/09/19 05:49:12;;;;;;;0.65;0.65;;;9.80;99.90;;;;;;5213440;28;20027;-72
2022/09/19 05:51:46;;;;;;;2.97;0.90;;;9.90;99.90;;;;;;5211910;28;20036;-73
2022/09/19 05:54:20;;;;;;;1.23;1.13;;;9.90;99.90;;;;;;5223170;28;20045;-72
2022/09/19 05:56:53;;;;;;;1.55;0.80;;;10.00;99.90;;;;;;5212035;28;20487;-73
2022/09/19 05:59:27;;;;;;;1.48;0.82;;;10.00;99.90;;;;;;5216279;28;20039;-73
2022/09/19 06:02:01;;;;;;;4.95;1.00;;;10.00;99.90;;;;;;5214777;28;20219;-73
2022/09/19 06:05:41;;;;;;;5.30;1.08;;;10.10;99.90;;;;;;5203421;28;20240;-71
2022/09/19 06:08:17;;;;;;;2.80;0.98;;;9.90;99.90;;;;;;5119506;28;20050;-71
2022/09/19 06:10:54;;;;;;;0.77;0.77;;;9.90;99.90;;;;;;5149375;28;20050;-73
2022/09/19 06:14:13;;;;;;;0.70;0.70;;;10.00;99.90;;;;;;5154567;28;20038;-73
2022/09/19 06:16:22;;;;;;;0.87;0.77;;;10.10;99.90;;;;;;5153624;28;20030;-71
2022/09/19 06:18:57;;;;;;;0.85;0.85;;;10.00;99.90;;;;;;5154342;28;20310;-71
2022/09/19 06:21:31;;;;;;;0.68;0.68;;;9.90;99.90;;;;;;5151196;28;20045;-70
2022/09/19 06:24:03;;;;;;;0.90;0.90;;;9.80;99.90;;;;;;5152380;28;20042;-71
2022/09/19 06:26:40;;;;;;;0.50;0.50;;;9.90;99.90;;;;;;5153321;28;20050;-72
2022/09/19 06:29:16;;;;;;;2.50;0.90;;;10.00;99.90;;;;;;5152400;28;20038;-72
2022/09/19 06:31:51;;;;;;;1.95;1.13;;;10.00;99.90;;;;;;5151491;28;20052;-72
2022/09/19 06:34:24;;;;;;;0.77;0.77;;;10.00;99.90;;;;;;5136900;28;20053;-72
2022/09/19 06:36:56;;;;;;;1.08;0.90;;;10.00;99.90;;;;;;5121372;28;20069;-72
2022/09/19 06:39:28;;;;;;;0.80;0.80;;;10.10;99.90;;;;;;5143669;28;20385;-72
2022/09/19 06:41:59;;;;;;;2.10;0.93;;;10.30;99.90;;;;;;5150620;28;20344;-72
2022/09/19 06:44:36;;;;;;;0.60;0.60;;;10.50;99.90;;;;;;5191272;28;20314;-72
2022/09/19 06:47:07;;;;;;;0.90;0.85;;;10.50;99.90;;;;;;5205510;28;20043;-72
2022/09/19 06:49:42;;;;;;;1.05;0.80;;;10.70;99.90;;;;;;5193156;28;20048;-72
2022/09/19 06:52:13;;;;;;;0.88;0.70;;;10.70;99.90;;;;;;5216299;28;20211;-72
2022/09/19 06:54:47;;;;;;;0.57;0.57;;;10.70;99.90;;;;;;5200148;28;20465;-72
2022/09/19 06:57:23;;;;;;;1.80;0.60;;;10.80;99.90;;;;;;5208801;28;20055;-72
2022/09/19 07:00:03;;;;;;;0.82;0.70;;;10.70;99.90;;;;;;5217716;28;20059;-72
2022/09/19 07:02:36;;;;;;;1.63;0.93;;;10.70;99.90;;;;;;5210143;28;20045;-72
2022/09/19 07:05:09;;;;;;;1.73;0.80;;;10.70;99.90;;;;;;5223319;28;20068;-73
2022/09/19 07:07:46;;;;;;;0.82;0.52;;;10.70;99.90;;;;;;5185816;28;20051;-72
2022/09/19 07:10:20;;;;;;;0.60;0.47;;;10.80;99.90;;;;;;5216451;28;20067;-72
2022/09/19 07:12:56;;;;;;;0.70;0.70;;;10.70;99.90;;;;;;5216766;28;20036;-72
2022/09/19 07:15:33;;;;;;;0.60;0.60;;;10.50;99.90;;;;;;5197714;28;20326;-72
2022/09/19 07:18:13;;;;;;;0.50;0.50;;;10.60;99.90;;;;;;5189956;28;20037;-72
2022/09/19 07:20:44;;;;;;;0.70;0.70;;;10.70;99.90;;;;;;5195413;28;20047;-72
2022/09/19 07:23:20;;;;;;;0.80;0.80;;;10.70;99.90;;;;;;5207681;28;20056;-72
2022/09/19 07:25:57;;;;;;;1.05;0.82;;;11.00;99.90;;;;;;5215371;28;20048;-72
2022/09/19 07:28:30;;;;;;;1.85;1.10;;;11.20;99.90;;;;;;5215722;28;20050;-72
2022/09/19 07:31:04;;;;;;;0.70;0.70;;;11.30;99.90;;;;;;5227915;28;20047;-72
2022/09/19 07:33:38;;;;;;;3.30;0.68;;;11.40;99.90;;;;;;5206246;28;20036;-72
2022/09/19 07:36:11;;;;;;;0.80;0.80;;;11.50;99.90;;;;;;5212251;28;20042;-72
2022/09/19 07:38:42;;;;;;;1.92;0.80;;;11.60;99.90;;;;;;5215097;28;20528;-72
2022/09/19 07:41:14;;;;;;;0.93;0.93;;;11.60;99.90;;;;;;5213182;28;20031;-72
2022/09/19 07:43:49;;;;;;;1.10;0.70;;;11.40;99.90;;;;;;5214444;28;20039;-72
2022/09/19 07:46:26;;;;;;;0.80;0.80;;;10.90;99.90;;;;;;5206625;28;20049;-72
2022/09/19 07:48:57;;;;;;;1.48;0.90;;;10.60;99.90;;;;;;5206904;28;20041;-73
2022/09/19 07:51:32;;;;;;;0.55;0.55;;;10.50;99.90;;;;;;5210611;28;20037;-73
2022/09/19 07:54:08;;;;;;;1.08;1.00;;;10.20;99.90;;;;;;5208196;28;20041;-74
2022/09/19 07:56:40;;;;;;;0.52;0.52;;;9.90;99.90;;;;;;5197105;28;20033;-74
2022/09/19 07:59:11;;;;;;;1.00;1.00;;;9.60;99.90;;;;;;5211080;28;20032;-73
2022/09/19 08:01:43;;;;;;;0.57;0.57;;;9.50;99.90;;;;;;5205877;28;20211;-74
2022/09/19 08:04:17;;;;;;;0.90;0.90;;;9.40;99.90;;;;;;5197195;28;20029;-74
2022/09/19 08:06:48;;;;;;;1.50;0.75;;;9.30;99.90;;;;;;5219022;28;20043;-73
2022/09/19 08:09:22;;;;;;;0.80;0.80;;;9.30;99.90;;;;;;5218247;28;20044;-73
2022/09/19 08:11:56;;;;;;;1.47;1.20;;;9.30;99.90;;;;;;5214816;28;20037;-73
2022/09/19 08:14:36;;;;;;;1.38;1.25;;;9.50;99.90;;;;;;5210162;28;20040;-74
2022/09/19 08:17:15;;;;;;;1.60;0.70;;;9.70;99.90;;;;;;5213556;28;20031;-74
2022/09/19 08:19:47;;;;;;;0.70;0.70;;;9.50;99.90;;;;;;5244535;28;20031;-74
2022/09/19 08:22:21;;;;;;;1.83;0.82;;;9.20;99.90;;;;;;5206763;28;20037;-75
2022/09/19 08:24:53;;;;;;;0.98;0.90;;;9.10;99.90;;;;;;5235644;28;20086;-74
2022/09/19 08:27:26;;;;;;;0.65;0.65;;;9.10;99.90;;;;;;5232374;28;20231;-74
2022/09/19 08:30:01;;;;;;;4.00;0.60;;;8.90;99.90;;;;;;5217952;28;20040;-74
2022/09/19 08:32:36;;;;;;;0.82;0.82;;;8.80;99.90;;;;;;5237799;28;20033;-74
2022/09/19 08:35:10;;;;;;;0.80;0.80;;;8.70;99.90;;;;;;5230708;28;20029;-74
2022/09/19 08:37:43;;;;;;;0.80;0.80;;;8.60;99.90;;;;;;5235584;28;20634;-73
2022/09/19 08:40:25;;;;;;;1.20;0.80;;;8.60;99.90;;;;;;5219480;28;20474;-73
2022/09/19 08:43:50;;;;;;;1.73;0.60;;;8.80;99.90;;;;;;5218307;28;20078;-73
2022/09/19 08:46:30;;;;;;;1.23;0.63;;;9.20;99.90;;;;;;5221963;28;20544;-74
2022/09/19 08:49:31;;;;;;;1.13;0.73;;;9.50;99.90;;;;;;5208141;28;20047;-73
2022/09/19 08:52:34;;;;;;;0.80;0.80;;;9.50;99.90;;;;;;5232771;28;20044;-73
2022/09/19 08:55:15;;;;;;;0.70;0.60;;;9.60;99.90;;;;;;5220089;28;20468;-73
2022/09/19 08:58:03;;;;;;;1.55;0.80;;;9.50;99.90;;;;;;5219517;28;20039;-73
2022/09/19 09:00:45;;;;;;;0.60;0.60;;;9.50;99.90;;;;;;5179991;28;20045;-72
2022/09/19 09:03:33;;;;;;;0.70;0.70;;;9.50;99.90;;;;;;5219378;28;20040;-72
2022/09/19 09:07:02;;;;;;;0.73;0.73;;;9.50;99.90;;;;;;5177928;28;20099;-72
2022/09/19 09:09:44;;;;;;;2.05;0.70;;;9.60;99.90;;;;;;5218499;28;20041;-71
2022/09/19 09:12:50;;;;;;;0.73;0.70;;;9.80;99.90;;;;;;5219920;28;20079;-72
2022/09/19 09:15:58;;;;;;;0.95;0.85;;;9.90;99.90;;;;;;5224192;28;20048;-72
2022/09/19 09:19:02;;;;;;;0.88;0.88;;;10.00;99.90;;;;;;5202456;28;20059;-72
2022/09/19 09:22:08;;;;;;;0.85;0.85;;;10.40;99.90;;;;;;5201452;28;20071;-72
2022/09/19 09:25:04;;;;;;;0.70;0.70;;;10.90;99.90;;;;;;5217619;28;20378;-72
2022/09/19 09:27:50;;;;;;;0.70;0.70;;;11.20;99.90;;;;;;5219895;28;20062;-72
2022/09/19 09:30:24;;;;;;;1.48;0.77;;;11.40;99.90;;;;;;5218094;28;20163;-72
2022/09/19 09:33:07;;;;;;;0.82;0.82;;;11.60;99.90;;;;;;5220618;28;20035;-72
2022/09/19 09:35:47;;;;;;;0.77;0.77;;;11.90;99.90;;;;;;5219904;28;20467;-72
2022/09/19 09:38:49;;;;;;;0.60;0.60;;;11.90;99.90;;;;;;5218217;28;20031;-72
2022/09/19 09:41:50;;;;;;;0.85;0.80;;;11.90;99.90;;;;;;5220726;28;20446;-72
2022/09/19 09:44:56;;;;;;;0.93;0.88;;;12.00;99.90;;;;;;5215921;28;20037;-72
2022/09/19 09:47:44;;;;;;;1.00;1.00;;;12.00;99.90;;;;;;5206225;28;20044;-72
2022/09/19 09:50:49;;;;;;;1.17;1.08;;;12.20;99.90;;;;;;5215179;28;20120;-73
2022/09/19 09:53:51;;;;;;;1.08;1.00;;;12.40;99.90;;;;;;5196662;28;20041;-72
2022/09/19 09:56:53;;;;;;;0.77;0.77;;;12.60;99.90;;;;;;5198135;28;20034;-72
2022/09/19 10:06:06;;;;;;;0.90;0.90;;;13.10;99.90;;;;;;5218208;28;20060;-72
2022/09/19 10:09:02;;;;;;;0.73;0.73;;;13.50;99.90;;;;;;5239639;28;20037;-71
2022/09/19 10:12:01;;;;;;;0.65;0.65;;;12.80;99.90;;;;;;5207527;28;20451;-72
2022/09/19 10:14:38;;;;;;;2.03;1.20;;;13.00;99.90;;;;;;5220484;28;20044;-72
2022/09/19 10:17:09;;;;;;;0.88;0.88;;;13.30;99.90;;;;;;5220402;28;20059;-72
2022/09/19 10:19:51;;;;;;;0.90;0.90;;;13.70;99.90;;;;;;5216351;28;20048;-72
2022/09/19 10:22:22;;;;;;;0.88;0.88;;;14.00;99.90;;;;;;5205332;28;20036;-73
2022/09/19 10:25:01;;;;;;;0.80;0.80;;;14.00;99.90;;;;;;5220970;28;20029;-72
2022/09/19 10:27:37;;;;;;;1.10;1.00;;;13.30;99.90;;;;;;5220938;28;20566;-72
2022/09/19 10:30:18;;;;;;;1.17;1.05;;;12.10;99.90;;;;;;5221371;28;20040;-71
2022/09/19 10:32:56;;;;;;;1.00;1.00;;;12.00;99.90;;;;;;5236617;28;20051;-71
2022/09/19 10:35:33;;;;;;;0.98;0.98;;;12.60;99.90;;;;;;5208527;28;20029;-74
2022/09/19 10:38:13;;;;;;;0.90;0.90;;;13.40;99.90;;;;;;5217820;28;20055;-71
2022/09/19 10:40:58;;;;;;;1.58;1.30;;;13.50;99.90;;;;;;5223685;28;20036;-71
2022/09/19 10:44:06;;;;;;;1.40;1.05;;;13.80;99.90;;;;;;5214951;28;20036;-72
2022/09/19 10:46:49;;;;;;;1.20;1.10;;;14.20;99.90;;;;;;5212164;28;20043;-73
2022/09/19 10:49:47;;;;;;;1.27;1.17;;;14.60;99.90;;;;;;5203989;28;20024;-73
2022/09/19 10:52:33;;;;;;;1.17;1.17;;;14.60;99.90;;;;;;5206852;28;20499;-71
2022/09/19 10:55:09;;;;;;;0.90;0.80;;;15.00;99.90;;;;;;5221005;28;20482;-73
2022/09/19 10:57:59;;;;;;;1.42;1.20;;;15.00;99.90;;;;;;5220289;28;20493;-73
2022/09/19 11:00:55;;;;;;;1.33;1.00;;;14.30;99.90;;;;;;5220369;28;20346;-73
2022/09/19 11:03:32;;;;;;;1.30;1.00;;;14.90;99.90;;;;;;5232236;28;20040;-73
2022/09/19 11:06:16;;;;;;;1.05;0.95;;;15.50;99.90;;;;;;5211089;28;20099;-73
2022/09/19 11:08:51;;;;;;;1.10;1.10;;;15.70;99.90;;;;;;5207976;28;20037;-74
2022/09/19 11:11:37;;;;;;;1.15;0.82;;;15.00;99.90;;;;;;5199384;28;20045;-73
2022/09/19 11:14:26;;;;;;;1.10;0.77;;;15.30;99.90;;;;;;5202604;28;20037;-73
2022/09/19 11:17:31;;;;;;;1.23;1.13;;;15.60;99.90;;;;;;5218309;28;20052;-74
2022/09/19 11:20:06;;;;;;;;;;;15.50;99.90;;;;;;5218742;28;20448;-71
2022/09/19 11:23:28;;;;;;;0.90;0.90;;;15.70;99.90;;;;;;5217506;28;19923;-72
2022/09/19 11:26:41;;;;;;;1.48;0.90;;;15.30;99.90;;;;;;5166260;28;20042;-72
2022/09/19 11:29:37;;;;;;;1.02;1.02;;;15.30;99.90;;;;;;5179320;28;20029;-71
2022/09/19 11:32:34;;;;;;;1.00;1.00;;;14.10;99.90;;;;;;5179780;28;20408;-71
2022/09/19 11:35:25;;;;;;;1.15;1.00;;;14.30;99.90;;;;;;5216999;28;20039;-72
2022/09/19 11:38:32;;;;;;;1.25;1.00;;;13.40;99.90;;;;;;5207527;28;20048;-71
2022/09/19 11:41:25;;;;;;;1.13;1.10;;;13.10;99.90;;;;;;5192869;28;20040;-71
2022/09/19 11:44:24;;;;;;;1.45;1.00;;;12.20;99.90;;;;;;5218372;28;20055;-71
2022/09/19 11:47:32;;;;;;;1.00;1.00;;;11.90;99.90;;;;;;5200441;28;20456;-72
2022/09/19 11:50:39;;;;;;;2.67;1.35;;;11.30;99.90;;;;;;5214662;28;20598;-72
2022/09/19 11:53:56;;;;;;;1.35;1.00;;;11.40;99.90;;;;;;5211988;28;20031;-72
2022/09/19 11:56:48;;;;;;;0.80;0.80;;;12.70;99.90;;;;;;5197046;28;20032;-72
2022/09/19 11:59:41;;;;;;;1.20;1.10;;;12.90;99.90;;;;;;5179263;28;20047;-72
2022/09/19 12:02:46;;;;;;;1.40;1.30;;;12.20;99.90;;;;;;5207012;28;20047;-73
2022/09/19 12:05:30;;;;;;;1.50;1.40;;;11.60;99.90;;;;;;5219389;28;20056;-73
2022/09/19 12:08:55;;;;;;;1.30;1.20;;;10.80;99.90;;;;;;5196945;28;20044;-75
2022/09/19 12:11:49;;;;;;;1.77;1.20;;;10.70;99.90;;;;;;5207075;28;20048;-73
2022/09/19 12:14:39;;;;;;;2.85;1.30;;;10.80;99.90;;;;;;5214374;28;20041;-72
2022/09/19 12:17:23;;;;;;;1.40;1.30;;;11.30;99.90;;;;;;5196351;28;20514;-73
2022/09/19 12:20:07;;;;;;;1.17;1.13;;;11.70;99.90;;;;;;5211592;28;20032;-73
2022/09/19 12:24:52;;;;;;;0.85;0.85;;;11.80;99.90;;;;;;5222533;28;20063;-72
2022/09/19 12:25:57;;;;;;;1.27;1.27;;;11.90;99.90;;;;;;5217312;28;20066;-73
2022/09/19 12:28:47;;;;;;;1.60;1.50;;;11.70;99.90;;;;;;5217562;28;20028;-73
2022/09/19 12:31:28;;;;;;;1.60;1.50;;;11.60;99.90;;;;;;5221076;28;20055;-72
2022/09/19 12:34:29;;;;;;;1.98;1.63;;;11.10;99.90;;;;;;5212678;28;20563;-73
2022/09/19 12:37:15;;;;;;;1.58;1.48;;;11.30;99.90;;;;;;5196442;28;20041;-73
2022/09/19 12:39:54;;;;;;;1.48;1.38;;;11.60;99.90;;;;;;5226444;28;20041;-72
2022/09/19 12:42:45;;;;;;;2.65;1.45;;;11.70;99.90;;;;;;5193926;28;20048;-73
2022/09/19 12:46:09;;;;;;;1.95;1.75;;;11.90;99.90;;;;;;5193778;28;20048;-73
2022/09/19 12:48:49;;;;;;;1.33;1.23;;;12.00;99.90;;;;;;5204318;28;20426;-73
2022/09/19 12:51:39;;;;;;;1.52;1.17;;;13.60;99.90;;;;;;5214551;28;20067;-72
2022/09/19 12:54:19;;;;;;;2.88;1.45;;;12.80;99.90;;;;;;5211620;28;20303;-72
2022/09/19 12:57:05;;;;;;;5.25;1.52;;;12.30;99.90;;;;;;5227754;28;20033;-72
2022/09/19 12:59:36;;;;;;;1.80;1.50;;;11.80;99.90;;;;;;5211173;28;20033;-73
2022/09/19 13:02:19;;;;;;;1.40;1.30;;;11.30;99.90;;;;;;5212787;28;20055;-74
2022/09/19 13:05:27;;;;;;;2.33;2.13;;;10.80;99.90;;;;;;5228500;28;20047;-73
2022/09/19 13:08:09;;;;;;;2.85;1.80;;;10.60;99.90;;;;;;5183914;28;20085;-72
2022/09/19 13:10:54;;;;;;;2.10;1.90;;;10.50;99.90;;;;;;5173079;28;20033;-73
2022/09/19 13:13:34;;;;;;;2.45;1.92;;;10.60;99.90;;;;;;5231979;28;20036;-73
2022/09/19 13:16:14;;;;;;;1.95;1.80;;;10.70;99.90;;;;;;5202301;28;20028;-73
2022/09/19 13:24:47;;;;;;;1.40;1.30;;;11.40;99.90;;;;;;5221577;28;20471;-72
2022/09/19 13:27:21;;;;;;;1.40;1.30;;;12.00;99.90;;;;;;5219894;28;20297;-71
2022/09/19 13:29:55;;;;;;;5.15;1.60;;;13.00;99.90;;;;;;5201566;28;20033;-72
2022/09/19 13:32:57;;;;;;;2.28;1.48;;;13.60;99.90;;;;;;5224167;28;20040;-71
2022/09/19 13:35:49;;;;;;;1.83;1.30;;;13.50;99.90;;;;;;5220035;28;20032;-72
2022/09/19 13:38:58;;;;;;;1.33;1.10;;;13.60;99.90;;;;;;5236235;28;20083;-73
2022/09/19 13:41:53;;;;;;;1.27;1.17;;;14.20;99.90;;;;;;5197766;28;20052;-73
2022/09/19 13:44:42;;;;;;;1.10;1.10;;;14.20;99.90;;;;;;5217551;28;20040;-73
2022/09/19 13:47:27;;;;;;;1.05;1.05;;;14.10;99.90;;;;;;5218640;28;20034;-73
2022/09/19 13:50:18;;;;;;;1.70;0.95;;;13.90;99.90;;;;;;5235516;28;20032;-72
2022/09/19 13:53:02;;;;;;;1.20;1.10;;;12.80;99.90;;;;;;5236047;28;20029;-73
2022/09/19 13:55:38;;;;;;;1.10;1.10;;;12.30;99.90;;;;;;5203179;28;20044;-73
2022/09/19 13:58:35;;;;;;;1.15;1.05;;;13.00;99.90;;;;;;5218567;28;20043;-72
2022/09/19 14:01:15;;;;;;;1.42;1.10;;;13.70;99.90;;;;;;5216809;28;20042;-74
2022/09/19 14:07:01;;;;;;;1.10;1.00;;;14.60;99.90;;;;;;5190673;28;20090;-73
2022/09/19 14:09:44;;;;;;;1.10;1.00;;;13.80;99.90;;;;;;5216660;28;21057;-74
2022/09/19 14:12:43;;;;;;;1.73;1.13;;;13.60;99.90;;;;;;5238791;28;20032;-73
2022/09/19 14:15:48;;;;;;;1.38;1.27;;;13.80;99.90;;;;;;5213617;28;20032;-73
2022/09/19 14:18:32;;;;;;;1.10;1.10;;;13.50;99.90;;;;;;5165943;28;20624;-71
2022/09/19 14:21:15;;;;;;;2.17;1.27;;;13.20;99.90;;;;;;5232419;28;20037;-72
2022/09/19 14:23:52;;;;;;;1.00;0.90;;;13.00;99.90;;;;;;5214904;28;20044;-71
2022/09/19 14:27:01;;;;;;;1.30;1.17;;;13.10;99.90;;;;;;5200254;28;20063;-72
2022/09/19 14:29:43;;;;;;;1.40;1.30;;;14.50;99.90;;;;;;5205970;28;20016;-72